TimePST,TemperatureF,Dew PointF,Humidity,Sea Level PressureIn,VisibilityMPH,Wind Direction,Wind SpeedMPH,Gust SpeedMPH,PrecipitationIn,Events,Conditions,WindDirDegrees,DateUTC
12:26 AM,57.2,55.4,94,30.07,7.0,Calm,Calm,-,N/A,,Overcast,0,2014-01-27 08:26:00
1:17 AM,57.2,55.4,94,30.07,6.0,Calm,Calm,-,N/A,,Overcast,0,2014-01-27 09:17:00
1:53 AM,57.0,54.0,89,30.07,6.0,Calm,Calm,-,N/A,,Overcast,0,2014-01-27 09:53:00
2:53 AM,57.9,53.1,84,30.05,8.0,Calm,Calm,-,N/A,,Overcast,0,2014-01-27 10:53:00
3:53 AM,55.0,51.1,86,30.02,7.0,SE,4.6,-,N/A,,Clear,130,2014-01-27 11:53:00
5:53 AM,54.0,48.9,83,30.02,7.0,South,4.6,-,N/A,,Clear,190,2014-01-27 13:53:00
6:53 AM,53.1,48.9,86,30.06,5.0,Calm,Calm,-,N/A,,Clear,0,2014-01-27 14:53:00
7:53 AM,55.9,51.1,84,30.08,4.0,Calm,Calm,-,N/A,,Haze,0,2014-01-27 15:53:00
8:53 AM,60.1,53.1,78,30.10,4.0,NW,4.6,-,N/A,,Haze,320,2014-01-27 16:53:00
9:48 AM,60.8,53.6,77,30.13,4.0,Variable,4.6,-,N/A,,Haze,0,2014-01-27 17:48:00
9:53 AM,62.1,53.1,72,30.12,10.0,Variable,3.5,-,N/A,,Overcast,0,2014-01-27 17:53:00
10:53 AM,64.0,52.0,65,30.09,10.0,NW,4.6,-,N/A,,Clear,310,2014-01-27 18:53:00
11:53 AM,66.9,51.1,57,30.06,10.0,West,3.5,-,N/A,,Clear,280,2014-01-27 19:53:00
12:53 PM,68.0,50.0,52,30.05,10.0,WNW,9.2,-,N/A,,Clear,290,2014-01-27 20:53:00
1:53 PM,68.0,48.9,50,30.02,10.0,West,8.1,-,N/A,,Clear,270,2014-01-27 21:53:00
2:53 PM,66.9,48.9,52,30.01,10.0,West,5.8,-,N/A,,Clear,260,2014-01-27 22:53:00
3:53 PM,64.0,52.0,65,30.01,10.0,WNW,10.4,-,N/A,,Clear,290,2014-01-27 23:53:00
4:40 PM,60.8,55.4,82,30.03,10.0,West,10.4,-,N/A,,Scattered Clouds,280,2014-01-28 00:40:00
4:53 PM,59.0,54.0,83,30.03,10.0,West,10.4,-,N/A,,Mostly Cloudy,280,2014-01-28 00:53:00
5:53 PM,59.0,54.0,83,30.06,10.0,WNW,4.6,-,N/A,,Overcast,300,2014-01-28 01:53:00
6:51 PM,57.2,53.6,88,30.06,10.0,WNW,3.5,-,N/A,,Overcast,300,2014-01-28 02:51:00
6:53 PM,57.9,53.1,84,30.06,10.0,Calm,Calm,-,N/A,,Overcast,0,2014-01-28 02:53:00
7:39 PM,57.2,53.6,88,30.06,10.0,Calm,Calm,-,N/A,,Partly Cloudy,0,2014-01-28 03:39:00
7:53 PM,57.0,53.1,87,30.06,10.0,Calm,Calm,-,N/A,,Clear,0,2014-01-28 03:53:00
8:39 PM,57.2,53.6,88,30.08,10.0,Calm,Calm,-,N/A,,Mostly Cloudy,0,2014-01-28 04:39:00
8:53 PM,57.9,53.1,84,30.08,10.0,Calm,Calm,-,N/A,,Overcast,0,2014-01-28 04:53:00
9:53 PM,57.0,53.1,87,30.08,10.0,Calm,Calm,-,N/A,,Overcast,0,2014-01-28 05:53:00
10:53 PM,57.0,52.0,83,30.07,9.0,Calm,Calm,-,N/A,,Overcast,0,2014-01-28 06:53:00
11:11 PM,55.4,51.8,88,30.07,9.0,Calm,Calm,-,N/A,,Scattered Clouds,0,2014-01-28 07:11:00
11:53 PM,55.0,52.0,89,30.08,9.0,Calm,Calm,-,N/A,,Scattered Clouds,0,2014-01-28 07:53:00